Airfield :
LOGIN :

Register | Disclaimer

   EN    FR    IT 

 










Legend :    VFR   Marginal VFR   IFR   Intensive IFR   Very Intensive IFR
Visi :
Ceiling :
>= 8 km
>= 3000ft
5 to 8 km
1000 to 3000 ft
1500m to 5 km
500 to 1000 ft
800 to 1500m
200 to 500 ft
< 800m
< 200 ft
Symbols :   Thunderstorms  Fog  Heavy snow  Heavy precipitations  Wind > 20 kt
SIGMETs :     Misc.  Thunderstorms  Icing  Turbulence  Mountain Waves  Volcanic Ashes






- Airport Elevation : 1830 ft


EBLB - Butgenbach Elsenborn

CURRENT METAR :
  • 301655Z AUTO 29010KT 9999 -RA OVC006/// 12/11 Q1014 YLO

EXPIRED METARs :
  • 301636Z AUTO 29010KT 9999 OVC006/// 13/11 Q1013 YLO
  • 301625Z AUTO 28011KT 9999 OVC007/// 13/11 Q1013 GRN
  • 301555Z AUTO 29012KT 9999 BKN007/// BKN046/// 15/13 Q1012 GRN
  • 301541Z AUTO 30015G25KT 9999 SCT014/// BKN034/// 17/14 Q1012 GRN
  • 301525Z AUTO 29010G21KT 9999 BKN034/// BKN110/// 20/15 Q1011 BLU
  • 301455Z AUTO 03008KT 9999 FEW051/// BKN060/// BKN130/// 22/15 Q1011 BLU
  • 301425Z AUTO 03007KT 9999 BKN042/// BKN110/// 22/14 Q1011 BLU

Expired Forecast.



MET'MAP, your aeronautical weather chart ! - Copyright ORBIFLY December 2007 - Disclaimer

ORBIFLY MET'MAP TEAM :

Programming & Development : Alexandra Zaïnal
Original concept : Baudouin d'Aumeries
Technical & hardware support : Manuel Goepfert
Assistance : Marc-Olivier Méhu




SOURCES & CREDITS :

   NOAA